Terminal Aerodrome Forecast
Issued by NWS Charleston, WV

Current Version | Previous Version | Graphics & Text | Print | Product List | Glossary On
Versions: 1 2 3 4 5 6 7 8 9 10 11 12 13 14 15 16 17 18 19 20 21 22 23 24 25 26
000
FTUS41 KRLX 230535
TAFPKB
TAF
KPKB 230535Z 2306/2406 17005KT P6SM BKN200
     FM231600 15007G18KT P6SM SHRA OVC045
     FM232000 14009G20KT 2SM SHRA OVC035
     FM232300 16007KT P6SM SHRA OVC025
     FM240400 20007KT P6SM OVC015=

USA.gov is the U.S. government's official web portal to all federal, state and local government web resources and services.